createdAt,value
2019-03-26T00:00:29.275Z,7.78
2019-03-26T00:01:29.255Z,7.77
2019-03-26T00:02:29.225Z,7.77
2019-03-26T00:03:29.202Z,7.81
2019-03-26T00:04:29.188Z,7.77
2019-03-26T00:05:29.154Z,7.77
2019-03-26T00:06:29.132Z,7.74
2019-03-26T00:07:29.108Z,7.84
2019-03-26T00:08:29.092Z,7.74
2019-03-26T00:09:29.062Z,7.72
2019-03-26T00:10:29.034Z,7.75
2019-03-26T00:11:29.013Z,7.70
2019-03-26T00:12:28.988Z,7.74
2019-03-26T00:13:28.971Z,7.72
2019-03-26T00:14:28.941Z,7.70
2019-03-26T00:15:28.924Z,7.69
2019-03-26T00:16:28.895Z,7.83
2019-03-26T00:17:28.869Z,7.75
2019-03-26T00:18:28.852Z,7.72
2019-03-26T00:19:28.823Z,7.84
2019-03-26T00:20:28.799Z,7.84
2019-03-26T00:21:28.782Z,7.85
2019-03-26T00:22:28.749Z,7.80
2019-03-26T00:23:28.825Z,7.74
2019-03-26T00:24:28.765Z,7.85
2019-03-26T00:25:28.682Z,7.84
2019-03-26T00:26:28.655Z,7.88
2019-03-26T00:27:28.633Z,7.84
2019-03-26T00:28:28.608Z,7.78
2019-03-26T00:29:28.584Z,7.70
2019-03-26T00:30:28.561Z,7.74
2019-03-26T00:31:28.537Z,7.77
2019-03-26T00:32:28.522Z,7.75
2019-03-26T00:33:36.301Z,7.77
2019-03-26T00:34:28.463Z,7.72
2019-03-26T00:35:28.440Z,7.67
2019-03-26T00:36:28.421Z,7.74
2019-03-26T00:37:28.392Z,7.70
2019-03-26T00:38:28.456Z,7.72
2019-03-26T00:39:28.349Z,7.66
2019-03-26T00:40:28.334Z,7.70
2019-03-26T00:41:28.299Z,7.66
2019-03-26T00:42:28.288Z,7.58
2019-03-26T00:43:28.253Z,7.74
2019-03-26T00:44:28.232Z,7.64
2019-03-26T00:45:28.210Z,7.67
2019-03-26T00:46:28.181Z,7.67
2019-03-26T00:47:28.158Z,7.70
2019-03-26T00:48:28.148Z,7.70
2019-03-26T00:49:28.110Z,7.67
2019-03-26T00:50:28.086Z,7.70
2019-03-26T00:51:28.065Z,7.66
2019-03-26T00:52:28.040Z,7.64
2019-03-26T00:53:28.015Z,7.72
2019-03-26T00:54:28.000Z,7.83
2019-03-26T00:55:27.970Z,7.80
2019-03-26T00:56:27.948Z,7.77
2019-03-26T00:57:27.924Z,7.78
2019-03-26T00:58:27.900Z,7.78
2019-03-26T00:59:27.878Z,7.81
2019-03-26T01:00:27.851Z,7.72
2019-03-26T01:01:27.828Z,7.75
2019-03-26T01:02:27.804Z,7.70
2019-03-26T01:03:27.781Z,7.67
2019-03-26T01:04:33.118Z,7.77
2019-03-26T01:05:27.736Z,7.78
2019-03-26T01:06:27.713Z,7.70
2019-03-26T01:07:27.686Z,7.75
2019-03-26T01:08:27.663Z,7.69
2019-03-26T01:09:27.642Z,7.75
2019-03-26T01:10:27.623Z,7.69
2019-03-26T01:11:27.597Z,7.66
2019-03-26T01:12:27.574Z,7.66
2019-03-26T01:13:27.544Z,7.67
2019-03-26T01:14:27.528Z,7.58
2019-03-26T01:15:27.497Z,7.61
2019-03-26T01:16:27.472Z,7.61
2019-03-26T01:17:27.451Z,7.64
2019-03-26T01:18:27.427Z,7.61
2019-03-26T01:19:27.402Z,7.64
2019-03-26T01:20:27.378Z,7.67
2019-03-26T01:21:27.354Z,7.61
2019-03-26T01:22:27.330Z,7.66
2019-03-26T01:23:27.306Z,7.64
2019-03-26T01:24:27.290Z,7.67
2019-03-26T01:25:27.258Z,7.56
2019-03-26T01:26:27.241Z,7.62
2019-03-26T01:27:27.212Z,7.66
2019-03-26T01:28:27.197Z,7.53
2019-03-26T01:29:27.165Z,7.61
2019-03-26T01:30:27.150Z,7.61
2019-03-26T01:31:27.122Z,7.55
2019-03-26T01:32:27.145Z,7.62
2019-03-26T01:33:27.077Z,7.58
2019-03-26T01:34:27.047Z,7.62
2019-03-26T01:35:27.029Z,7.62
2019-03-26T01:36:27.001Z,7.62
2019-03-26T01:37:26.975Z,7.56
2019-03-26T01:38:26.950Z,7.51
2019-03-26T01:39:26.927Z,7.46
2019-03-26T01:40:26.904Z,7.53
2019-03-26T01:41:26.879Z,7.47
2019-03-26T01:42:26.866Z,7.47
2019-03-26T01:43:26.836Z,7.43
2019-03-26T01:44:26.808Z,7.41
2019-03-26T01:45:26.802Z,7.46
2019-03-26T01:46:26.761Z,7.40
2019-03-26T01:47:26.738Z,7.48
2019-03-26T01:48:26.715Z,7.44
2019-03-26T01:49:26.688Z,7.44
2019-03-26T01:50:26.668Z,7.29
2019-03-26T01:51:26.642Z,7.31
2019-03-26T01:52:26.622Z,7.44
2019-03-26T01:53:26.605Z,7.41
2019-03-26T01:54:26.571Z,7.26
2019-03-26T01:55:26.558Z,7.31
2019-03-26T01:56:26.525Z,7.28
2019-03-26T01:57:26.500Z,7.31
2019-03-26T01:58:26.475Z,7.36
2019-03-26T01:59:26.453Z,7.31
2019-03-26T02:00:26.429Z,7.31
2019-03-26T02:01:26.413Z,7.32
2019-03-26T02:02:26.383Z,7.37
2019-03-26T02:03:26.361Z,7.33
2019-03-26T02:04:26.343Z,7.26
2019-03-26T02:05:26.311Z,7.44
2019-03-26T02:06:26.286Z,7.31
2019-03-26T02:07:26.266Z,7.46
2019-03-26T02:08:26.240Z,7.50
2019-03-26T02:09:26.218Z,7.48
2019-03-26T02:10:26.194Z,7.46
2019-03-26T02:11:26.169Z,7.48
2019-03-26T02:12:26.164Z,7.56
2019-03-26T02:13:26.121Z,7.48
2019-03-26T02:14:26.100Z,7.48
2019-03-26T02:15:26.074Z,7.51
2019-03-26T02:16:26.052Z,7.50
2019-03-26T02:17:26.027Z,7.50
2019-03-26T02:18:26.012Z,7.43
2019-03-26T02:19:25.979Z,7.51
2019-03-26T02:20:25.957Z,7.47
2019-03-26T02:21:25.932Z,7.46
2019-03-26T02:22:25.910Z,7.44
2019-03-26T02:23:25.886Z,7.46
2019-03-26T02:24:25.866Z,7.40
2019-03-26T02:25:25.839Z,7.50
2019-03-26T02:26:25.815Z,7.36
2019-03-26T02:27:25.791Z,7.36
2019-03-26T02:28:25.769Z,7.46
2019-03-26T02:29:25.783Z,7.43
2019-03-26T02:30:25.720Z,7.43
2019-03-26T02:31:25.743Z,7.41
2019-03-26T02:32:25.678Z,7.44
2019-03-26T02:33:25.650Z,7.46
2019-03-26T02:34:25.667Z,7.47
2019-03-26T02:35:25.603Z,7.40
2019-03-26T02:36:25.584Z,7.32
2019-03-26T02:37:25.556Z,7.31
2019-03-26T02:38:25.539Z,7.32
2019-03-26T02:39:25.512Z,7.37
2019-03-26T02:40:25.490Z,7.36
2019-03-26T02:41:25.465Z,7.25
2019-03-26T02:42:25.438Z,7.32
2019-03-26T02:43:25.418Z,7.26
2019-03-26T02:44:25.395Z,7.18
2019-03-26T02:45:25.367Z,7.19
2019-03-26T02:46:25.345Z,7.26
2019-03-26T02:47:25.319Z,7.21
2019-03-26T02:48:25.298Z,7.26
2019-03-26T02:49:25.281Z,7.26
2019-03-26T02:50:25.248Z,7.29
2019-03-26T02:51:25.235Z,7.26
2019-03-26T02:52:25.204Z,7.29
2019-03-26T02:53:25.188Z,7.32
2019-03-26T02:54:25.155Z,7.46
2019-03-26T02:55:25.132Z,7.48
2019-03-26T02:56:25.109Z,7.47
2019-03-26T02:57:25.106Z,7.48
2019-03-26T02:58:25.063Z,7.53
2019-03-26T02:59:25.038Z,7.44
2019-03-26T03:00:25.015Z,7.51
2019-03-26T03:01:24.988Z,7.44
2019-03-26T03:02:24.968Z,7.40
2019-03-26T03:03:24.949Z,7.44
2019-03-26T03:04:24.921Z,7.47
2019-03-26T03:05:35.175Z,7.51
2019-03-26T03:06:24.872Z,7.56
2019-03-26T03:07:24.849Z,7.58
2019-03-26T03:08:24.823Z,7.51
2019-03-26T03:09:24.805Z,7.64
2019-03-26T03:10:24.776Z,7.64
2019-03-26T03:11:24.753Z,7.61
2019-03-26T03:12:24.731Z,7.61
2019-03-26T03:13:24.715Z,7.61
2019-03-26T03:14:24.682Z,7.64
2019-03-26T03:15:24.659Z,7.55
2019-03-26T03:16:24.635Z,7.62
2019-03-26T03:17:24.618Z,7.51
2019-03-26T03:18:24.589Z,7.43
2019-03-26T03:19:24.563Z,7.43
2019-03-26T03:20:24.541Z,7.43
2019-03-26T03:21:24.515Z,7.31
2019-03-26T03:22:24.494Z,7.44
2019-03-26T03:23:24.478Z,7.39
2019-03-26T03:24:24.447Z,7.43
2019-03-26T03:25:24.423Z,7.36
2019-03-26T03:26:24.399Z,7.40
2019-03-26T03:27:24.376Z,7.43
2019-03-26T03:28:24.356Z,7.46
2019-03-26T03:29:24.335Z,7.53
2019-03-26T03:30:24.322Z,7.62
2019-03-26T03:31:24.283Z,7.62
2019-03-26T03:32:24.262Z,7.53
2019-03-26T03:33:24.234Z,7.53
2019-03-26T03:34:24.212Z,7.46
2019-03-26T03:35:24.188Z,7.44
2019-03-26T03:36:24.166Z,7.48
2019-03-26T03:37:24.147Z,7.41
2019-03-26T03:38:24.117Z,7.43
2019-03-26T03:39:24.096Z,7.41
2019-03-26T03:40:24.098Z,7.44
2019-03-26T03:41:24.045Z,7.46
2019-03-26T03:42:24.022Z,7.53
2019-03-26T03:43:24.001Z,7.40
2019-03-26T03:44:23.976Z,7.32
2019-03-26T03:45:23.950Z,7.40
2019-03-26T03:46:23.926Z,7.48
2019-03-26T03:47:23.907Z,7.50
2019-03-26T03:48:23.881Z,7.40
2019-03-26T03:49:23.864Z,7.47
2019-03-26T03:50:23.833Z,7.43
2019-03-26T03:51:23.812Z,7.44
2019-03-26T03:52:23.807Z,7.46
2019-03-26T03:53:23.784Z,7.40
2019-03-26T03:54:23.747Z,7.44
2019-03-26T03:55:23.715Z,7.53
2019-03-26T03:56:23.693Z,7.46
2019-03-26T03:57:23.675Z,7.47
2019-03-26T03:58:23.646Z,7.44
2019-03-26T03:59:23.622Z,7.43
2019-03-26T04:00:23.603Z,7.41
2019-03-26T04:01:23.581Z,7.46
2019-03-26T04:02:23.560Z,7.44
2019-03-26T04:03:23.525Z,7.51
2019-03-26T04:04:23.503Z,7.36
2019-03-26T04:05:23.479Z,7.32
2019-03-26T04:06:23.453Z,7.41
2019-03-26T04:07:23.432Z,7.40
2019-03-26T04:08:23.409Z,7.39
2019-03-26T04:09:23.385Z,7.31
2019-03-26T04:10:23.365Z,7.46
2019-03-26T04:11:23.346Z,7.28
2019-03-26T04:12:23.314Z,7.26
2019-03-26T04:13:23.289Z,7.26
2019-03-26T04:14:23.266Z,7.29
2019-03-26T04:15:23.243Z,7.23
2019-03-26T04:16:23.218Z,7.37
2019-03-26T04:17:23.205Z,7.36
2019-03-26T04:18:23.183Z,7.36
2019-03-26T04:19:23.156Z,7.46
2019-03-26T04:20:23.129Z,7.29
2019-03-26T04:21:23.103Z,7.37
2019-03-26T04:22:23.076Z,7.44
2019-03-26T04:23:23.058Z,7.47
2019-03-26T04:24:23.039Z,7.44
2019-03-26T04:25:23.006Z,7.47
2019-03-26T04:26:22.989Z,7.58
2019-03-26T04:27:22.962Z,7.50
2019-03-26T04:28:22.943Z,7.40
2019-03-26T04:29:22.924Z,7.44
2019-03-26T04:30:22.890Z,7.32
2019-03-26T04:31:22.866Z,7.28
2019-03-26T04:32:22.852Z,7.29
2019-03-26T04:33:22.817Z,7.46
2019-03-26T04:34:22.879Z,7.33
2019-03-26T04:35:22.776Z,7.43
2019-03-26T04:36:26.073Z,7.47
2019-03-26T04:37:22.721Z,7.46
2019-03-26T04:38:22.711Z,7.46
2019-03-26T04:39:22.676Z,7.41
2019-03-26T04:40:22.654Z,7.50
2019-03-26T04:41:22.629Z,7.43
2019-03-26T04:42:22.604Z,7.48
2019-03-26T04:43:22.588Z,7.48
2019-03-26T04:44:22.557Z,7.50
2019-03-26T04:45:22.549Z,7.43
2019-03-26T04:46:22.508Z,7.43
2019-03-26T04:47:22.486Z,7.48
2019-03-26T04:48:22.462Z,7.55
2019-03-26T04:49:22.448Z,7.61
2019-03-26T04:50:22.422Z,7.62
2019-03-26T04:51:22.390Z,7.64
2019-03-26T04:52:22.368Z,7.40
2019-03-26T04:53:22.344Z,7.51
2019-03-26T04:54:22.318Z,7.46
2019-03-26T04:55:22.297Z,7.48
2019-03-26T04:56:22.272Z,7.46
2019-03-26T04:57:22.248Z,7.53
2019-03-26T04:58:22.224Z,7.51
2019-03-26T04:59:22.200Z,7.46
2019-03-26T05:00:22.178Z,7.51
2019-03-26T05:01:22.165Z,7.56
2019-03-26T05:02:22.134Z,7.44
2019-03-26T05:03:22.107Z,7.47
2019-03-26T05:04:22.082Z,7.47
2019-03-26T05:05:22.060Z,7.53
2019-03-26T05:06:22.034Z,7.50
2019-03-26T05:07:22.011Z,7.51
2019-03-26T05:08:21.990Z,7.43
2019-03-26T05:09:21.965Z,7.33
2019-03-26T05:10:21.941Z,7.33
2019-03-26T05:11:21.917Z,7.36
2019-03-26T05:12:21.892Z,7.28
2019-03-26T05:13:21.869Z,7.41
2019-03-26T05:14:21.848Z,7.26
2019-03-26T05:15:21.820Z,7.28
2019-03-26T05:16:21.797Z,7.26
2019-03-26T05:17:21.775Z,7.28
2019-03-26T05:18:21.749Z,7.26
2019-03-26T05:19:21.725Z,7.32
2019-03-26T05:20:21.704Z,7.23
2019-03-26T05:21:21.678Z,7.26
2019-03-26T05:22:24.252Z,7.29
2019-03-26T05:23:21.633Z,7.25
2019-03-26T05:24:21.609Z,7.28
2019-03-26T05:25:21.585Z,7.25
2019-03-26T05:26:21.559Z,7.26
2019-03-26T05:27:21.542Z,7.22
2019-03-26T05:28:21.510Z,7.28
2019-03-26T05:29:21.486Z,7.23
2019-03-26T05:30:21.464Z,7.23
2019-03-26T05:31:21.448Z,7.28
2019-03-26T05:32:21.417Z,7.26
2019-03-26T05:33:21.392Z,7.28
2019-03-26T05:34:21.369Z,7.39
2019-03-26T05:35:21.344Z,7.32
2019-03-26T05:36:21.323Z,7.23
2019-03-26T05:37:21.301Z,7.28
2019-03-26T05:38:21.279Z,7.28
2019-03-26T05:39:21.251Z,7.29
2019-03-26T05:40:21.235Z,7.33
2019-03-26T05:41:21.202Z,7.28
2019-03-26T05:42:21.179Z,7.29
2019-03-26T05:43:21.154Z,7.26
2019-03-26T05:44:21.129Z,7.29
2019-03-26T05:45:21.110Z,7.22
2019-03-26T05:46:21.086Z,7.28
2019-03-26T05:47:21.063Z,7.28
2019-03-26T05:48:21.035Z,7.29
2019-03-26T05:49:21.010Z,7.29
2019-03-26T05:50:20.989Z,7.23
2019-03-26T05:51:20.964Z,7.28
2019-03-26T05:52:20.944Z,7.25
2019-03-26T05:53:20.916Z,7.26
2019-03-26T05:54:20.895Z,7.25
2019-03-26T05:55:20.870Z,7.32
2019-03-26T05:56:20.853Z,7.33
2019-03-26T05:57:20.822Z,7.26
2019-03-26T05:58:20.799Z,7.33
2019-03-26T05:59:20.778Z,7.31
2019-03-26T06:00:20.752Z,7.28
2019-03-26T06:01:20.728Z,7.33
2019-03-26T06:02:20.706Z,7.26
2019-03-26T06:03:20.678Z,7.36
2019-03-26T06:04:20.656Z,7.44
2019-03-26T06:05:20.636Z,7.36
2019-03-26T06:06:20.660Z,7.31
2019-03-26T06:07:20.586Z,7.36
2019-03-26T06:08:20.564Z,7.36
2019-03-26T06:09:20.544Z,7.37
2019-03-26T06:10:20.519Z,7.36
2019-03-26T06:11:20.499Z,7.46
2019-03-26T06:12:20.467Z,7.26
2019-03-26T06:13:20.445Z,7.26
2019-03-26T06:14:20.420Z,7.31
2019-03-26T06:15:20.397Z,7.43
2019-03-26T06:16:20.371Z,7.31
2019-03-26T06:17:20.356Z,7.44
2019-03-26T06:18:20.526Z,7.46
2019-03-26T06:19:20.301Z,7.36
2019-03-26T06:20:20.279Z,7.44
2019-03-26T06:21:20.262Z,7.36
2019-03-26T06:22:20.233Z,7.28
2019-03-26T06:23:20.209Z,7.29
2019-03-26T06:24:20.183Z,7.44
2019-03-26T06:25:20.160Z,7.44
2019-03-26T06:26:20.135Z,7.51
2019-03-26T06:27:20.114Z,7.50
2019-03-26T06:28:20.089Z,7.43
2019-03-26T06:29:20.073Z,7.50
2019-03-26T06:30:20.051Z,7.41
2019-03-26T06:31:20.018Z,7.33
2019-03-26T06:32:19.994Z,7.32
2019-03-26T06:33:19.982Z,7.40
2019-03-26T06:34:19.949Z,7.48
2019-03-26T06:35:19.941Z,7.47
2019-03-26T06:36:19.905Z,7.41
2019-03-26T06:37:19.875Z,7.43
2019-03-26T06:38:19.853Z,7.47
2019-03-26T06:39:20.027Z,7.43
2019-03-26T06:40:19.809Z,7.56
2019-03-26T06:41:19.791Z,7.53
2019-03-26T06:42:19.761Z,7.47
2019-03-26T06:43:19.736Z,7.61
2019-03-26T06:44:19.715Z,7.67
2019-03-26T06:45:19.698Z,7.62
2019-03-26T06:46:19.676Z,7.66
2019-03-26T06:47:19.643Z,7.72
2019-03-26T06:48:19.620Z,7.70
2019-03-26T06:49:19.595Z,7.67
2019-03-26T06:50:19.580Z,7.72
2019-03-26T06:51:19.551Z,7.77
2019-03-26T06:52:19.526Z,7.77
2019-03-26T06:53:19.514Z,7.67
2019-03-26T06:54:19.480Z,7.69
2019-03-26T06:55:19.457Z,7.74
2019-03-26T06:56:19.437Z,7.77
2019-03-26T06:57:19.410Z,7.74
2019-03-26T06:58:19.385Z,7.66
2019-03-26T06:59:19.374Z,7.77
2019-03-26T07:00:19.345Z,7.77
2019-03-26T07:01:19.314Z,7.70
2019-03-26T07:02:19.292Z,7.75
2019-03-26T07:03:19.284Z,7.72
2019-03-26T07:04:19.247Z,7.69
2019-03-26T07:05:19.221Z,7.83
2019-03-26T07:06:19.210Z,7.80
2019-03-26T07:07:31.040Z,7.81
2019-03-26T07:08:19.154Z,7.75
2019-03-26T07:09:19.132Z,7.69
2019-03-26T07:10:19.109Z,7.74
2019-03-26T07:11:19.083Z,7.80
2019-03-26T07:12:19.072Z,7.74
2019-03-26T07:13:19.054Z,7.80
2019-03-26T07:14:19.020Z,7.81
2019-03-26T07:15:18.992Z,7.88
2019-03-26T07:16:19.009Z,7.91
2019-03-26T07:17:18.944Z,7.88
2019-03-26T07:18:18.929Z,7.98
2019-03-26T07:19:18.908Z,7.95
2019-03-26T07:20:18.882Z,7.95
2019-03-26T07:21:18.852Z,8.02
2019-03-26T07:22:18.828Z,7.98
2019-03-26T07:23:18.816Z,7.91
2019-03-26T07:24:18.791Z,8.03
2019-03-26T07:25:18.760Z,7.91
2019-03-26T07:26:18.745Z,7.88
2019-03-26T07:27:18.714Z,8.05
2019-03-26T07:28:18.709Z,8.18
2019-03-26T07:29:18.668Z,8.21
2019-03-26T07:30:18.643Z,8.21
2019-03-26T07:31:18.623Z,8.27
2019-03-26T07:32:18.600Z,8.23
2019-03-26T07:33:18.576Z,8.17
2019-03-26T07:34:18.557Z,8.18
2019-03-26T07:35:18.539Z,8.06
2019-03-26T07:36:18.521Z,8.13
2019-03-26T07:37:18.493Z,8.13
2019-03-26T07:38:18.463Z,8.14
2019-03-26T07:39:18.454Z,8.18
2019-03-26T07:40:18.417Z,8.09
2019-03-26T07:41:18.397Z,8.06
2019-03-26T07:42:18.373Z,8.32
2019-03-26T07:43:18.351Z,8.42
2019-03-26T07:44:18.335Z,8.52
2019-03-26T07:45:18.321Z,8.31
2019-03-26T07:46:18.283Z,8.31
2019-03-26T07:47:18.267Z,8.36
2019-03-26T07:48:18.241Z,8.45
2019-03-26T07:49:18.223Z,8.50
2019-03-26T07:50:18.203Z,8.50
2019-03-26T07:51:18.175Z,8.53
2019-03-26T07:52:18.161Z,8.72
2019-03-26T07:53:18.133Z,8.74
2019-03-26T07:54:18.104Z,8.57
2019-03-26T07:55:18.085Z,8.72
2019-03-26T07:56:18.061Z,8.77
2019-03-26T07:57:18.041Z,8.99
2019-03-26T07:58:18.018Z,9.22
2019-03-26T07:59:17.997Z,9.26
2019-03-26T08:00:18.096Z,9.09
2019-03-26T08:01:17.955Z,9.16
2019-03-26T08:02:17.936Z,9.40
2019-03-26T08:03:21.024Z,9.27
2019-03-26T08:04:17.891Z,9.21
2019-03-26T08:05:29.309Z,9.18
2019-03-26T08:06:17.845Z,9.09
2019-03-26T08:07:17.834Z,9.27
2019-03-26T08:08:17.803Z,9.36
2019-03-26T08:09:17.847Z,9.52
2019-03-26T08:10:17.762Z,9.47
2019-03-26T08:11:17.741Z,9.45
2019-03-26T08:12:17.726Z,9.47
2019-03-26T08:13:17.715Z,9.39
2019-03-26T08:14:17.688Z,9.42
2019-03-26T08:15:20.166Z,9.44
2019-03-26T08:16:17.642Z,9.45
2019-03-26T08:17:17.644Z,9.44
2019-03-26T08:18:17.611Z,9.42
2019-03-26T08:19:17.575Z,9.42
2019-03-26T08:20:17.558Z,9.40
2019-03-26T08:21:17.542Z,9.58
2019-03-26T08:22:17.513Z,9.59
2019-03-26T08:23:17.503Z,9.45
2019-03-26T08:24:17.473Z,9.22
2019-03-26T08:25:17.455Z,9.22
2019-03-26T08:26:17.431Z,9.24
2019-03-26T08:27:17.414Z,9.45
2019-03-26T08:28:17.399Z,9.66
2019-03-26T08:29:17.371Z,9.77
2019-03-26T08:30:17.355Z,9.80
2019-03-26T08:31:17.345Z,9.85
2019-03-26T08:32:17.311Z,9.84
2019-03-26T08:33:17.293Z,9.74
2019-03-26T08:34:17.268Z,9.72
2019-03-26T08:35:17.253Z,9.62
2019-03-26T08:36:17.228Z,9.40
2019-03-26T08:37:17.207Z,9.48
2019-03-26T08:38:17.196Z,9.47
2019-03-26T08:39:17.169Z,9.52
2019-03-26T08:40:17.148Z,9.80
2019-03-26T08:41:17.126Z,10.10
2019-03-26T08:42:17.106Z,10.34
2019-03-26T08:43:17.095Z,10.77
2019-03-26T08:44:17.077Z,11.00
2019-03-26T08:45:17.047Z,11.18
2019-03-26T08:46:17.034Z,11.30
2019-03-26T08:47:17.006Z,11.20
2019-03-26T08:48:16.987Z,11.15
2019-03-26T08:49:16.968Z,11.44
2019-03-26T08:50:16.948Z,11.55
2019-03-26T08:51:16.928Z,11.56
2019-03-26T08:52:16.910Z,11.51
2019-03-26T08:53:16.897Z,11.60
2019-03-26T08:54:16.871Z,11.55
2019-03-26T08:55:16.872Z,11.56
2019-03-26T08:56:16.844Z,11.67
2019-03-26T08:57:16.814Z,11.40
2019-03-26T08:58:16.803Z,10.92
2019-03-26T08:59:16.776Z,10.57
2019-03-26T09:00:16.760Z,10.38
2019-03-26T09:01:16.748Z,10.46
2019-03-26T09:02:16.721Z,10.43
2019-03-26T09:03:16.702Z,10.10
2019-03-26T09:04:16.693Z,9.85
2019-03-26T09:05:16.671Z,9.99
2019-03-26T09:06:16.644Z,9.77
2019-03-26T09:07:16.630Z,9.63
2019-03-26T09:08:25.335Z,9.63
2019-03-26T09:09:16.594Z,9.76
2019-03-26T09:10:16.571Z,9.90
2019-03-26T09:11:16.551Z,10.10
2019-03-26T09:12:16.530Z,10.33
2019-03-26T09:13:16.511Z,10.45
2019-03-26T09:14:16.491Z,10.38
2019-03-26T09:15:16.479Z,10.39
2019-03-26T09:16:16.455Z,10.07
2019-03-26T09:17:19.602Z,10.12
2019-03-26T09:18:16.413Z,10.24
2019-03-26T09:19:16.395Z,10.23
2019-03-26T09:20:16.374Z,10.30
2019-03-26T09:21:16.353Z,10.41
2019-03-26T09:22:16.487Z,10.39
2019-03-26T09:23:16.315Z,10.36
2019-03-26T09:24:16.301Z,10.39
2019-03-26T09:25:16.301Z,10.18
2019-03-26T09:26:16.257Z,10.02
2019-03-26T09:27:16.234Z,9.90
2019-03-26T09:28:16.216Z,9.49
2019-03-26T09:29:16.217Z,9.39
2019-03-26T09:30:16.176Z,9.26
2019-03-26T09:31:16.154Z,9.45
2019-03-26T09:32:16.149Z,9.49
2019-03-26T09:33:16.116Z,9.58
2019-03-26T09:34:16.094Z,9.58
2019-03-26T09:35:16.075Z,9.59
2019-03-26T09:36:16.054Z,9.66
2019-03-26T09:37:16.039Z,9.69
2019-03-26T09:38:16.012Z,9.72
2019-03-26T09:39:16.056Z,9.72
2019-03-26T09:40:16.012Z,9.74
2019-03-26T09:41:15.952Z,9.90
2019-03-26T09:42:15.931Z,9.62
2019-03-26T09:43:15.909Z,9.47
2019-03-26T09:44:15.892Z,9.42
2019-03-26T09:45:15.873Z,9.48
2019-03-26T09:46:15.850Z,9.52
2019-03-26T09:47:16.778Z,9.34
2019-03-26T09:48:15.822Z,9.30
2019-03-26T09:49:15.785Z,9.22
2019-03-26T09:50:15.770Z,9.44
2019-03-26T09:51:15.753Z,9.42
2019-03-26T09:52:15.725Z,9.39
2019-03-26T09:53:15.707Z,9.45
2019-03-26T09:54:15.682Z,9.63
2019-03-26T09:55:15.665Z,9.77
2019-03-26T09:56:27.934Z,9.81
2019-03-26T09:57:15.627Z,9.92
2019-03-26T09:58:15.599Z,10.13
2019-03-26T09:59:15.579Z,9.88
2019-03-26T10:00:15.574Z,9.95
2019-03-26T10:01:15.536Z,10.02
2019-03-26T10:02:15.524Z,9.92
2019-03-26T10:03:15.506Z,9.95
2019-03-26T10:04:15.482Z,9.92
2019-03-26T10:05:15.462Z,9.97
2019-03-26T10:06:23.196Z,9.92
2019-03-26T10:07:21.496Z,9.90
2019-03-26T10:08:17.767Z,9.88
2019-03-26T10:09:15.380Z,10.03
2019-03-26T10:10:15.351Z,9.85
2019-03-26T10:11:15.330Z,9.81
2019-03-26T10:12:15.311Z,9.80
2019-03-26T10:13:15.294Z,9.80
2019-03-26T10:14:15.269Z,9.90
2019-03-26T10:15:15.247Z,9.73
2019-03-26T10:16:15.228Z,9.70
2019-03-26T10:17:15.208Z,9.62
2019-03-26T10:18:15.189Z,9.56
2019-03-26T10:19:16.974Z,9.48
2019-03-26T10:20:15.144Z,9.62
2019-03-26T10:21:15.123Z,9.74
2019-03-26T10:22:15.112Z,9.82
2019-03-26T10:23:15.084Z,9.80
2019-03-26T10:24:15.061Z,10.07
2019-03-26T10:25:15.040Z,10.13
2019-03-26T10:26:15.028Z,10.48
2019-03-26T10:27:15.000Z,10.49
2019-03-26T10:28:14.994Z,10.42
2019-03-26T10:29:29.164Z,10.68
2019-03-26T10:30:14.944Z,10.82
2019-03-26T10:31:14.919Z,10.64
2019-03-26T10:32:14.898Z,10.61
2019-03-26T10:33:14.879Z,10.62
2019-03-26T10:34:14.858Z,10.42
2019-03-26T10:35:14.839Z,10.33
2019-03-26T10:36:14.821Z,10.27
2019-03-26T10:37:14.798Z,10.36
2019-03-26T10:38:14.779Z,10.46
2019-03-26T10:39:14.765Z,10.46
2019-03-26T10:40:14.740Z,10.67
2019-03-26T10:41:14.725Z,10.84
2019-03-26T10:42:14.706Z,11.02
2019-03-26T10:43:14.680Z,10.89
2019-03-26T10:44:14.672Z,10.82
2019-03-26T10:45:14.641Z,10.92
2019-03-26T10:46:14.620Z,10.98
2019-03-26T10:47:14.612Z,11.22
2019-03-26T10:48:14.585Z,11.23
2019-03-26T10:49:14.573Z,11.34
2019-03-26T10:50:14.544Z,11.23
2019-03-26T10:51:14.524Z,10.83
2019-03-26T10:52:14.505Z,10.76
2019-03-26T10:53:14.484Z,10.90
2019-03-26T10:54:14.465Z,11.18
2019-03-26T10:55:14.448Z,11.12
2019-03-26T10:56:14.428Z,11.07
2019-03-26T10:57:14.410Z,11.10
2019-03-26T10:58:14.390Z,11.49
2019-03-26T10:59:14.371Z,11.73
2019-03-26T11:00:14.351Z,12.00
2019-03-26T11:01:14.332Z,12.29
2019-03-26T11:02:14.314Z,12.28
2019-03-26T11:03:14.304Z,12.53
2019-03-26T11:04:14.279Z,12.51
2019-03-26T11:05:14.264Z,12.55
2019-03-26T11:06:14.239Z,12.47
2019-03-26T11:07:58.245Z,12.21
2019-03-26T11:08:58.233Z,11.85
2019-03-26T11:09:58.206Z,11.85
2019-03-26T11:10:58.187Z,11.93
2019-03-26T11:11:58.178Z,11.76
2019-03-26T11:13:00.978Z,11.26
2019-03-26T11:13:58.872Z,10.86
2019-03-26T11:14:58.116Z,10.92
2019-03-26T11:15:58.100Z,10.97
2019-03-26T11:16:58.079Z,11.27
2019-03-26T11:17:58.069Z,11.33
2019-03-26T11:18:58.041Z,11.18
2019-03-26T11:19:58.110Z,11.30
2019-03-26T11:21:02.769Z,11.34
2019-03-26T11:21:57.989Z,11.38
2019-03-26T11:22:57.966Z,11.43
2019-03-26T11:23:57.960Z,11.48
2019-03-26T11:24:57.930Z,11.34
2019-03-26T11:25:57.912Z,11.37
2019-03-26T11:26:57.899Z,11.40
2019-03-26T11:27:57.874Z,11.40
2019-03-26T11:28:57.855Z,11.40
2019-03-26T11:29:57.843Z,11.27
2019-03-26T11:30:57.818Z,10.94
2019-03-26T11:31:57.848Z,11.01
2019-03-26T11:32:57.779Z,11.12
2019-03-26T11:33:57.759Z,11.18
2019-03-26T11:34:57.740Z,11.37
2019-03-26T11:35:57.728Z,11.43
2019-03-26T11:36:57.710Z,11.48
2019-03-26T11:37:57.685Z,11.51
2019-03-26T11:38:57.683Z,11.58
2019-03-26T11:39:57.643Z,11.70
2019-03-26T11:40:57.625Z,11.62
2019-03-26T11:41:57.605Z,11.58
2019-03-26T11:42:57.593Z,11.51
2019-03-26T11:43:57.576Z,11.48
2019-03-26T11:44:59.443Z,11.41
2019-03-26T11:45:57.529Z,11.58
2019-03-26T11:46:57.533Z,11.48
2019-03-26T11:47:57.489Z,11.48
2019-03-26T11:48:57.471Z,11.51
2019-03-26T11:49:57.451Z,11.49
2019-03-26T11:50:57.431Z,11.26
2019-03-26T11:51:57.414Z,11.18
2019-03-26T11:52:57.443Z,11.00
2019-03-26T11:53:57.373Z,11.00
2019-03-26T11:54:57.361Z,10.92
2019-03-26T11:55:57.335Z,10.92
2019-03-26T11:56:57.314Z,10.82
2019-03-26T11:57:57.296Z,10.79
2019-03-26T11:58:57.276Z,10.58
2019-03-26T11:59:57.256Z,10.58
2019-03-26T12:00:57.237Z,10.57
2019-03-26T12:01:57.233Z,10.57
2019-03-26T12:02:57.196Z,10.42
2019-03-26T12:03:57.184Z,10.72
2019-03-26T12:04:57.159Z,10.67
2019-03-26T12:05:57.139Z,10.77
2019-03-26T12:06:57.118Z,10.67
2019-03-26T12:07:57.108Z,10.83
2019-03-26T12:08:57.080Z,11.01
2019-03-26T12:09:57.062Z,11.08
2019-03-26T12:10:57.051Z,11.19
2019-03-26T12:11:57.036Z,11.02
2019-03-26T12:12:56.999Z,10.80
2019-03-26T12:13:56.990Z,10.90
2019-03-26T12:14:56.961Z,11.01
2019-03-26T12:15:56.942Z,11.19
2019-03-26T12:16:56.922Z,11.31
2019-03-26T12:17:56.908Z,11.22
2019-03-26T12:18:56.884Z,11.00
2019-03-26T12:19:56.870Z,11.04
2019-03-26T12:20:56.846Z,10.80
2019-03-26T12:21:56.826Z,10.76
2019-03-26T12:22:56.819Z,10.58
2019-03-26T12:23:56.788Z,10.75
2019-03-26T12:24:56.769Z,10.75
2019-03-26T12:25:56.750Z,10.71
2019-03-26T12:26:56.740Z,10.89
2019-03-26T12:27:56.715Z,11.05
2019-03-26T12:28:56.694Z,10.89
2019-03-26T12:29:56.683Z,10.68
2019-03-26T12:30:56.661Z,10.58
2019-03-26T12:31:56.648Z,10.79
2019-03-26T12:32:56.623Z,10.71
2019-03-26T12:33:56.608Z,10.61
2019-03-26T12:34:56.586Z,10.57
2019-03-26T12:35:56.561Z,10.55
2019-03-26T12:36:56.552Z,10.83
2019-03-26T12:37:56.525Z,10.86
2019-03-26T12:38:56.509Z,11.07
2019-03-26T12:39:59.679Z,11.26
2019-03-26T12:40:56.468Z,11.26
2019-03-26T12:41:56.456Z,11.35
2019-03-26T12:42:56.449Z,11.40
2019-03-26T12:43:56.415Z,11.40
2019-03-26T12:44:56.389Z,11.43
2019-03-26T12:45:56.370Z,11.53
2019-03-26T12:46:58.326Z,11.45
2019-03-26T12:47:56.333Z,11.53
2019-03-26T12:48:56.313Z,11.55
2019-03-26T12:49:56.299Z,11.43
2019-03-26T12:50:56.337Z,11.41
2019-03-26T12:51:56.257Z,11.53
2019-03-26T12:52:56.238Z,11.52
2019-03-26T12:53:56.217Z,11.26
2019-03-26T12:54:56.201Z,11.08
2019-03-26T12:55:56.180Z,10.79
2019-03-26T12:56:56.170Z,10.69
2019-03-26T12:57:56.144Z,10.64
2019-03-26T12:58:56.126Z,10.71
2019-03-26T12:59:56.103Z,10.87
2019-03-26T13:00:56.086Z,10.90
2019-03-26T13:01:56.133Z,11.02
2019-03-26T13:02:56.051Z,11.10
2019-03-26T13:03:56.024Z,11.05
2019-03-26T13:04:56.008Z,11.04
2019-03-26T13:05:55.988Z,10.84
2019-03-26T13:06:55.966Z,10.77
2019-03-26T13:07:55.957Z,10.82
2019-03-26T13:08:55.935Z,10.72
2019-03-26T13:09:55.908Z,10.77
2019-03-26T13:10:55.893Z,10.77
2019-03-26T13:11:55.876Z,10.80